Time;durP1;ratioP1;P1;durP2;ratioP2;P2;SDS_P1;SDS_P2;PMS_P1;PMS_P2;Temp;Humidity;BMP_temperature;BMP_pressure;BME280_temperature;BME280_humidity;BME280_pressure;Samples;Min_cycle;Max_cycle;Signal;HPM_P1;HPM_P2
2024/01/21 00:01:55;;;;;;;1.10;1.10;;;;;;;1.15;100.00;101678.41;5032527;28;20204;-80
2024/01/21 00:04:23;;;;;;;1.27;1.27;;;;;;;0.92;100.00;101657.88;5032393;28;20311;-80
2024/01/21 00:06:50;;;;;;;1.20;1.20;;;;;;;1.09;100.00;101689.81;5032628;28;20682;-80
2024/01/21 00:09:16;;;;;;;1.60;1.50;;;;;;;0.94;100.00;101692.06;5031887;28;20611;-80
2024/01/21 00:11:43;;;;;;;1.63;1.40;;;;;;;0.93;100.00;101691.16;5032222;28;20727;-78
2024/01/21 00:14:10;;;;;;;1.40;1.40;;;;;;;0.72;100.00;101674.16;5032746;28;20196;-79
2024/01/21 00:16:37;;;;;;;1.87;1.77;;;;;;;0.84;100.00;101653.81;5032334;28;20660;-80
2024/01/21 00:19:04;;;;;;;2.17;1.77;;;;;;;0.85;100.00;101676.03;5032267;28;20257;-80
2024/01/21 00:21:32;;;;;;;1.20;1.20;;;;;;;0.97;100.00;101693.19;5032068;28;20208;-79
2024/01/21 00:24:00;;;;;;;1.00;1.00;;;;;;;0.96;100.00;101700.75;5032191;28;20652;-80
2024/01/21 00:26:26;;;;;;;2.90;2.73;;;;;;;0.91;100.00;101704.59;5032286;28;20192;-81
2024/01/21 00:28:53;;;;;;;1.30;1.30;;;;;;;0.86;100.00;101682.88;5032146;28;20244;-79
2024/01/21 00:31:20;;;;;;;1.13;1.13;;;;;;;0.86;100.00;101700.75;5032333;28;20207;-79
2024/01/21 00:33:47;;;;;;;1.00;1.00;;;;;;;0.85;100.00;101706.66;5032103;28;20200;-80
2024/01/21 00:36:13;;;;;;;1.10;1.10;;;;;;;0.95;100.00;101704.06;5032212;28;20196;-80
2024/01/21 00:38:41;;;;;;;1.00;1.00;;;;;;;0.72;100.00;101684.34;5031978;28;20287;-79
2024/01/21 00:41:08;;;;;;;1.00;1.00;;;;;;;0.87;100.00;101712.75;4997407;28;20242;-80
2024/01/21 00:43:35;;;;;;;1.27;1.27;;;;;;;0.64;100.00;101704.97;5032166;28;20636;-80
2024/01/21 00:46:05;;;;;;;1.30;1.30;;;;;;;0.80;100.00;101703.75;5031732;28;20856;-80
2024/01/21 00:48:32;;;;;;;1.10;1.10;;;;;;;0.71;100.00;101687.72;5031845;28;20286;-79
2024/01/21 00:50:58;;;;;;;1.10;1.10;;;;;;;0.82;100.00;101707.28;5031502;28;20203;-78
2024/01/21 00:53:25;;;;;;;1.17;1.17;;;;;;;0.79;100.00;101703.59;5031397;28;20196;-80
2024/01/21 00:55:53;;;;;;;1.40;1.40;;;;;;;0.59;100.00;101684.16;5031695;28;20215;-80
2024/01/21 00:58:20;;;;;;;0.90;0.90;;;;;;;0.74;100.00;101705.81;5031027;28;20215;-79
2024/01/21 01:00:47;;;;;;;1.37;1.37;;;;;;;0.73;100.00;101695.47;4996458;28;20211;-80
2024/01/21 01:03:14;;;;;;;0.80;0.80;;;;;;;0.73;100.00;101710.78;5030491;28;20641;-80
2024/01/21 01:05:40;;;;;;;1.20;1.20;;;;;;;0.77;100.00;101683.06;5031124;28;20211;-79
2024/01/21 01:08:07;;;;;;;1.40;1.40;;;;;;;0.93;100.00;101698.81;5031313;28;20318;-79
2024/01/21 01:10:34;;;;;;;0.90;0.90;;;;;;;0.83;100.00;101708.19;5031289;28;20204;-80
2024/01/21 01:13:02;;;;;;;1.07;1.07;;;;;;;0.81;100.00;101707.19;5031261;28;20211;-80
2024/01/21 01:15:29;;;;;;;0.80;0.80;;;;;;;0.62;100.00;101686.06;5031043;28;20629;-80
2024/01/21 01:17:56;;;;;;;15.73;2.53;;;;;;;0.74;100.00;101710.03;5030971;28;20203;-79
2024/01/21 01:20:22;;;;;;;2.10;1.53;;;;;;;0.65;100.00;101709.28;5031125;28;20200;-79
2024/01/21 01:22:49;;;;;;;1.20;1.20;;;;;;;0.61;100.00;101704.72;5031221;28;20726;-80
2024/01/21 01:25:16;;;;;;;0.90;0.90;;;;;;;0.68;100.00;101707.00;5030757;28;20696;-80
2024/01/21 01:27:43;;;;;;;0.80;0.80;;;;;;;0.64;100.00;101684.53;5030855;28;20196;-80
2024/01/21 01:30:12;;;;;;;1.20;1.20;;;;;;;0.69;100.00;101713.84;5030315;28;20200;-80
2024/01/21 01:32:39;;;;;;;1.30;1.30;;;;;;;0.59;100.00;101706.22;5030502;28;20706;-80
2024/01/21 01:35:08;;;;;;;1.10;1.10;;;;;;;0.57;100.00;101706.09;5030383;28;20208;-80
2024/01/21 01:37:34;;;;;;;1.67;1.57;;;;;;;0.62;100.00;101696.25;4996636;28;20706;-79
2024/01/21 01:40:01;;;;;;;1.10;1.10;;;;;;;0.56;100.00;101717.09;5030557;28;20204;-80
2024/01/21 01:42:28;;;;;;;1.03;1.03;;;;;;;0.50;100.00;101716.56;5030851;28;20199;-79
2024/01/21 01:44:55;;;;;;;0.90;0.90;;;;;;;0.32;100.00;101659.88;5030927;28;20192;-81
2024/01/21 01:47:23;;;;;;;1.00;1.00;;;;;;;0.72;100.00;101707.34;5030456;28;20192;-80
2024/01/21 01:49:50;;;;;;;0.90;0.90;;;;;;;0.72;100.00;101714.09;5030377;28;20224;-78
2024/01/21 01:52:18;;;;;;;1.77;1.67;;;;;;;0.68;100.00;101712.09;5030746;28;20290;-80
2024/01/21 01:54:46;;;;;;;1.20;1.20;;;;;;;0.58;100.00;101719.75;5030586;28;20207;-80
2024/01/21 01:57:15;;;;;;;1.20;1.20;;;;;;;0.52;100.00;101716.72;5030490;28;20192;-80
2024/01/21 01:59:42;;;;;;;1.00;1.00;;;;;;;0.51;100.00;101723.47;5030605;28;20215;-80
2024/01/21 02:02:10;;;;;;;0.80;0.80;;;;;;;0.55;100.00;101710.19;5031060;28;21259;-80
2024/01/21 02:04:38;;;;;;;0.80;0.80;;;;;;;0.35;100.00;101690.75;5029772;28;20573;-80
2024/01/21 02:07:05;;;;;;;0.87;0.87;;;;;;;0.57;100.00;101723.09;5030327;28;20207;-80
2024/01/21 02:09:32;;;;;;;0.90;0.90;;;;;;;0.48;100.00;101719.03;5030829;28;20243;-79
2024/01/21 02:11:59;;;;;;;1.20;1.20;;;;;;;0.28;100.00;101693.56;5030511;28;20195;-80
2024/01/21 02:14:25;;;;;;;1.10;1.10;;;;;;;0.35;100.00;101695.84;5030348;28;20223;-80
2024/01/21 02:16:52;;;;;;;1.33;1.33;;;;;;;0.42;100.00;101726.19;5029984;28;20293;-80
2024/01/21 02:19:26;;;;;;;1.43;1.43;;;;;;;0.38;100.00;101691.00;5030604;28;20199;-80
2024/01/21 02:21:54;;;;;;;1.13;1.13;;;;;;;0.42;100.00;101693.03;5029840;28;20667;-80
2024/01/21 02:24:29;;;;;;;1.60;1.50;;;;;;;0.46;100.00;101725.66;5030277;28;20696;-79
2024/01/21 02:26:56;;;;;;;1.63;1.63;;;;;;;-0.07;100.00;101674.47;5030267;28;20207;-80
2024/01/21 02:29:23;;;;;;;1.37;1.37;;;;;;;0.20;100.00;101730.31;5030518;28;20226;-80
2024/01/21 02:31:50;;;;;;;1.33;1.33;;;;;;;0.17;100.00;101714.75;5030481;28;20211;-79
2024/01/21 02:34:16;;;;;;;3.13;2.17;;;;;;;0.23;100.00;101717.78;5030303;28;20643;-79
2024/01/21 02:36:43;;;;;;;1.00;1.00;;;;;;;0.28;100.00;101741.13;5030441;28;20683;-79
2024/01/21 02:39:10;;;;;;;1.03;1.03;;;;;;;0.29;100.00;101738.69;5014503;28;20887;-80
2024/01/21 02:41:38;;;;;;;1.27;1.27;;;;;;;0.28;100.00;101741.13;5030100;28;20250;-79
2024/01/21 02:44:05;;;;;;;1.43;1.37;;;;;;;0.26;100.00;101719.69;5030294;28;20192;-80
2024/01/21 02:46:32;;;;;;;1.00;1.00;;;;;;;0.30;100.00;101739.59;5033894;28;20687;-81
2024/01/21 02:48:58;;;;;;;2.60;2.40;;;;;;;0.39;100.00;101748.88;5033550;28;20787;-80
2024/01/21 02:51:25;;;;;;;0.90;0.90;;;;;;;0.14;100.00;101750.22;5033901;28;20633;-80
2024/01/21 02:53:52;;;;;;;0.80;0.80;;;;;;;0.21;100.00;101747.41;5033861;28;20200;-81
2024/01/21 02:56:23;;;;;;;0.90;0.90;;;;;;;0.32;100.00;101744.03;5033770;28;20262;-80
2024/01/21 02:58:52;;;;;;;1.73;1.73;;;;;;;0.09;100.00;101761.66;5033245;28;20610;-80
2024/01/21 03:01:19;;;;;;;1.00;1.00;;;;;;;-0.10;100.00;101737.94;5033972;28;20246;-79
2024/01/21 03:03:47;;;;;;;1.33;1.33;;;;;;;0.00;100.00;101750.72;5033276;28;20196;-79
2024/01/21 03:06:14;;;;;;;0.83;0.83;;;;;;;0.09;100.00;101761.66;5033481;28;20203;-80
2024/01/21 03:08:41;;;;;;;1.23;1.23;;;;;;;0.07;100.00;101754.66;5033476;28;20290;-79
2024/01/21 03:11:08;;;;;;;1.03;1.03;;;;;;;0.10;100.00;101762.56;5032856;28;20258;-81
2024/01/21 03:13:35;;;;;;;1.13;1.13;;;;;;;0.07;100.00;101763.22;5033136;28;20266;-81
2024/01/21 03:16:03;;;;;;;1.30;1.30;;;;;;;0.10;100.00;101757.47;5033306;28;20207;-81
2024/01/21 03:18:30;;;;;;;1.50;1.50;;;;;;;-0.02;100.00;101735.28;5031526;28;20212;-80
2024/01/21 03:20:56;;;;;;;1.00;1.00;;;;;;;0.00;100.00;101750.72;5033201;28;20216;-80
2024/01/21 03:23:23;;;;;;;0.80;0.80;;;;;;;-0.10;100.00;101754.13;5032931;28;20319;-79
2024/01/21 03:25:50;;;;;;;1.60;1.33;;;;;;;-0.11;100.00;101754.03;5033400;28;20666;-80
2024/01/21 03:28:18;;;;;;;1.10;1.10;;;;;;;-0.02;100.00;101758.22;4998359;28;20660;-81
2024/01/21 03:30:45;;;;;;;1.20;1.20;;;;;;;-0.12;100.00;101732.75;5027991;28;20687;-80
2024/01/21 03:33:13;;;;;;;0.87;0.87;;;;;;;0.14;100.00;101749.31;5033123;28;20691;-81
2024/01/21 03:35:40;;;;;;;1.20;1.20;;;;;;;-0.10;100.00;101722.66;4998352;28;20196;-79
2024/01/21 03:38:07;;;;;;;1.03;1.03;;;;;;;0.24;100.00;101762.94;5032930;28;20269;-80
2024/01/21 03:40:34;;;;;;;0.90;0.90;;;;;;;0.24;100.00;101757.84;5032898;28;20303;-80
2024/01/21 03:43:00;;;;;;;2.10;1.50;;;;;;;0.19;100.00;101761.66;5033107;28;20196;-80
2024/01/21 03:45:27;;;;;;;0.90;0.90;;;;;;;0.40;100.00;101760.88;5032905;28;20219;-80
2024/01/21 03:47:54;;;;;;;1.10;1.10;;;;;;;0.35;100.00;101766.38;5013596;28;20237;-78
2024/01/21 03:50:22;;;;;;;0.97;0.97;;;;;;;0.31;100.00;101764.34;5032618;28;20224;-79
2024/01/21 03:52:49;;;;;;;1.00;1.00;;;;;;;0.41;100.00;101762.66;5032422;28;20219;-80
2024/01/21 03:55:16;;;;;;;1.00;1.00;;;;;;;0.30;100.00;101771.09;4981509;28;20200;-81
2024/01/21 03:57:43;;;;;;;1.20;1.20;;;;;;;0.28;100.00;101765.00;5031432;28;20204;-78
2024/01/21 04:00:12;;;;;;;1.10;1.10;;;;;;;0.14;100.00;101767.16;5031848;28;20203;-80
2024/01/21 04:02:39;;;;;;;1.00;1.00;;;;;;;0.26;100.00;101771.59;5032120;28;20200;-80
2024/01/21 04:05:06;;;;;;;1.10;1.10;;;;;;;0.27;100.00;101762.28;5031845;28;20201;-80
2024/01/21 04:07:35;;;;;;;1.20;1.20;;;;;;;0.15;100.00;101743.41;5032088;28;20680;-80
2024/01/21 04:10:03;;;;;;;1.20;1.20;;;;;;;0.14;100.00;101774.81;5032873;28;20227;-79
2024/01/21 04:12:29;;;;;;;1.20;1.20;;;;;;;0.20;100.00;101768.56;5032475;28;20201;-80
2024/01/21 04:14:56;;;;;;;1.07;1.07;;;;;;;0.18;100.00;101772.63;5029101;28;20200;-80
2024/01/21 04:17:24;;;;;;;1.80;1.70;;;;;;;0.22;100.00;101764.47;5031665;28;20584;-80
2024/01/21 04:19:51;;;;;;;1.20;1.20;;;;;;;0.24;100.00;101773.16;5031711;28;20212;-81
2024/01/21 04:22:18;;;;;;;6.57;1.40;;;;;;;-0.06;100.00;101770.59;5031572;28;20211;-80
2024/01/21 04:24:47;;;;;;;0.90;0.90;;;;;;;0.15;100.00;101772.38;5031814;28;20199;-80
2024/01/21 04:27:14;;;;;;;2.53;2.43;;;;;;;0.01;100.00;101783.06;5031697;28;20232;-81
2024/01/21 04:29:41;;;;;;;1.27;1.13;;;;;;;-0.07;100.00;101772.22;5031736;28;20230;-80
2024/01/21 04:32:07;;;;;;;1.03;1.03;;;;;;;0.12;100.00;101776.31;5031147;28;20208;-81
2024/01/21 04:34:35;;;;;;;1.23;1.23;;;;;;;0.01;100.00;101765.22;5031985;28;20212;-80
2024/01/21 04:37:02;;;;;;;1.50;1.43;;;;;;;0.08;100.00;101784.47;5031311;28;20605;-81
2024/01/21 04:39:29;;;;;;;0.90;0.90;;;;;;;0.11;100.00;101780.53;5013045;28;20213;-80
2024/01/21 04:41:57;;;;;;;35.60;4.43;;;;;;;0.15;100.00;101782.56;5031656;28;20196;-78
2024/01/21 04:44:24;;;;;;;1.10;1.10;;;;;;;0.18;100.00;101777.72;5031678;28;20200;-79
2024/01/21 04:46:51;;;;;;;2.03;1.97;;;;;;;0.07;100.00;101781.06;5012611;28;20207;-81
2024/01/21 04:49:18;;;;;;;9.80;2.60;;;;;;;-0.17;100.00;101777.31;5031438;28;20239;-81
2024/01/21 04:51:44;;;;;;;1.10;1.10;;;;;;;-0.08;100.00;101788.31;5031270;28;20204;-81
2024/01/21 04:54:11;;;;;;;3.60;2.33;;;;;;;-0.01;100.00;101792.28;5031278;28;20234;-80
2024/01/21 04:56:38;;;;;;;1.13;1.13;;;;;;;0.13;100.00;101794.31;5029352;28;20204;-78
2024/01/21 04:59:06;;;;;;;1.83;1.73;;;;;;;0.14;100.00;101783.34;4995920;28;20907;-79
2024/01/21 05:01:34;;;;;;;1.20;1.20;;;;;;;-0.08;100.00;101774.66;5031105;28;20208;-79
2024/01/21 05:04:00;;;;;;;1.00;1.00;;;;;;;0.00;100.00;101799.16;5031203;28;20231;-81
2024/01/21 05:06:27;;;;;;;1.00;1.00;;;;;;;0.00;100.00;101802.56;5030966;28;20703;-82
2024/01/21 05:08:54;;;;;;;1.00;1.00;;;;;;;-0.01;100.00;101802.47;5029777;28;20216;-81
2024/01/21 05:11:21;;;;;;;2.03;1.93;;;;;;;-0.09;100.00;101795.81;5030795;28;20207;-74
2024/01/21 05:13:47;;;;;;;1.93;1.77;;;;;;;-0.04;100.00;101817.50;5030602;28;20204;-80
2024/01/21 05:16:16;;;;;;;2.13;2.03;;;;;;;0.05;100.00;101807.19;5027222;28;20203;-80
2024/01/21 05:18:44;;;;;;;1.20;1.20;;;;;;;-0.09;100.00;101806.00;5029380;28;20215;-80
2024/01/21 05:21:11;;;;;;;1.00;1.00;;;;;;;-0.12;100.00;101796.47;5030837;28;20197;-77
2024/01/21 05:23:38;;;;;;;1.20;1.20;;;;;;;-0.17;100.00;101813.00;5031036;28;20215;-79
2024/01/21 05:26:05;;;;;;;1.00;1.00;;;;;;;-0.48;100.00;101714.34;5030786;28;20216;-78
2024/01/21 05:28:31;;;;;;;0.87;0.87;;;;;;;0.13;100.00;101809.63;5030622;28;20215;-78
2024/01/21 05:30:58;;;;;;;0.70;0.70;;;;;;;-0.08;100.00;101813.81;5030286;28;20230;-78
2024/01/21 05:33:26;;;;;;;2.50;2.23;;;;;;;0.18;100.00;101810.88;5030071;28;20200;-79
2024/01/21 05:35:53;;;;;;;1.70;1.70;;;;;;;0.03;100.00;101812.16;4995522;28;20204;-78
2024/01/21 05:38:20;;;;;;;3.83;2.90;;;;;;;0.05;100.00;101807.19;5030112;28;20201;-80
2024/01/21 05:40:46;;;;;;;0.93;0.93;;;;;;;0.12;100.00;101812.91;4995841;28;20656;-79
2024/01/21 05:43:13;;;;;;;1.03;1.03;;;;;;;0.06;100.00;101791.13;5030310;28;20608;-77
2024/01/21 05:45:40;;;;;;;1.10;1.10;;;;;;;0.25;100.00;101815.72;5027835;28;20196;-78
2024/01/21 05:48:08;;;;;;;1.03;1.03;;;;;;;0.13;100.00;101818.91;5029757;28;20228;-78
2024/01/21 05:50:37;;;;;;;9.43;6.30;;;;;;;0.05;100.00;101831.03;5029175;28;20216;-78
2024/01/21 05:53:05;;;;;;;1.20;1.20;;;;;;;0.16;100.00;101830.28;4981291;28;20203;-78
2024/01/21 05:55:32;;;;;;;1.67;1.67;;;;;;;0.05;100.00;101796.97;5029645;28;20206;-79
2024/01/21 05:57:59;;;;;;;0.90;0.90;;;;;;;0.19;100.00;101832.16;5026400;28;20211;-79
2024/01/21 06:00:26;;;;;;;1.03;1.03;;;;;;;0.19;100.00;101835.63;5029099;28;20623;-79
2024/01/21 06:02:53;;;;;;;1.00;1.00;;;;;;;0.16;100.00;101830.28;5029592;28;20207;-80
2024/01/21 06:05:20;;;;;;;1.20;1.20;;;;;;;0.16;100.00;101847.22;5010897;28;20211;-80
2024/01/21 06:07:48;;;;;;;1.77;1.77;;;;;;;0.13;100.00;101850.41;5029466;28;20267;-78
2024/01/21 06:10:15;;;;;;;1.93;1.93;;;;;;;0.24;100.00;101851.31;4994505;28;20228;-77
2024/01/21 06:12:42;;;;;;;0.90;0.90;;;;;;;0.05;100.00;101855.63;5011293;28;20204;-77
2024/01/21 06:15:11;;;;;;;1.03;1.03;;;;;;;0.16;100.00;101859.97;5030286;28;20200;-79
2024/01/21 06:17:38;;;;;;;2.30;2.20;;;;;;;0.23;100.00;101864.81;5031067;28;20639;-79
2024/01/21 06:20:05;;;;;;;0.90;0.90;;;;;;;0.23;100.00;101868.28;5007953;28;20219;-81
2024/01/21 06:22:32;;;;;;;0.90;0.90;;;;;;;0.26;100.00;101865.97;5035199;28;20203;-77
2024/01/21 06:25:00;;;;;;;0.90;0.90;;;;;;;0.48;100.00;101867.00;5038121;28;20294;-75
2024/01/21 06:27:27;;;;;;;0.90;0.90;;;;;;;0.33;100.00;101865.72;5038824;28;20200;-74
2024/01/21 06:29:53;;;;;;;0.90;0.90;;;;;;;0.19;100.00;101873.88;5039739;28;20560;-76
2024/01/21 06:32:20;;;;;;;1.37;1.37;;;;;;;0.38;100.00;101872.13;5041302;28;20192;-78
2024/01/21 06:34:47;;;;;;;0.90;0.90;;;;;;;0.03;100.00;101852.97;5040000;28;20615;-76
2024/01/21 06:37:14;;;;;;;1.73;1.73;;;;;;;0.13;100.00;101854.63;5035169;28;20196;-76
2024/01/21 06:39:40;;;;;;;1.40;1.33;;;;;;;0.48;100.00;101894.19;5034406;28;20209;-74
2024/01/21 06:42:09;;;;;;;0.80;0.80;;;;;;;0.41;100.00;101899.53;5015817;28;20200;-74
2024/01/21 06:44:37;;;;;;;2.40;2.20;;;;;;;0.49;100.00;101903.63;4998846;28;20196;-74
2024/01/21 06:47:04;;;;;;;4.83;2.70;;;;;;;0.30;100.00;101892.63;5036451;28;20598;-76
2024/01/21 06:49:30;;;;;;;1.70;1.70;;;;;;;0.41;100.00;101899.53;5032785;28;20196;-76
2024/01/21 06:51:57;;;;;;;2.43;2.33;;;;;;;0.41;100.00;101903.00;5029134;28;20338;-79
2024/01/21 06:54:24;;;;;;;4.20;3.80;;;;;;;0.15;100.00;101883.69;5031628;28;20205;-80
2024/01/21 06:56:51;;;;;;;0.90;0.90;;;;;;;0.38;100.00;101910.41;5033538;28;20212;-80
2024/01/21 06:59:19;;;;;;;1.53;1.53;;;;;;;0.07;100.00;101911.09;5033869;28;20200;-79
2024/01/21 07:01:46;;;;;;;1.20;1.20;;;;;;;0.08;100.00;101917.06;5027090;28;20661;-78
2024/01/21 07:04:13;;;;;;;2.03;2.03;;;;;;;0.14;100.00;101913.41;5033040;28;20223;-80
2024/01/21 07:06:41;;;;;;;1.20;1.20;;;;;;;-0.50;100.00;101807.59;4982322;28;20725;-80
2024/01/21 07:09:09;;;;;;;0.77;0.77;;;;;;;0.06;100.00;101916.97;5032994;28;20226;-80
2024/01/21 07:11:36;;;;;;;1.27;1.27;;;;;;;0.20;100.00;101924.13;5033389;28;20228;-72
2024/01/21 07:14:04;;;;;;;1.43;1.43;;;;;;;0.21;100.00;101925.03;5034133;28;20217;-79
2024/01/21 07:16:32;;;;;;;1.00;1.00;;;;;;;0.41;100.00;101918.31;5031457;28;20234;-80
2024/01/21 07:18:59;;;;;;;1.20;1.20;;;;;;;0.16;100.00;101922.09;5032219;28;20731;-79
2024/01/21 07:21:26;;;;;;;1.37;1.37;;;;;;;-0.03;100.00;101878.81;5031471;28;20271;-81
2024/01/21 07:23:53;;;;;;;1.50;1.50;;;;;;;0.11;100.00;101928.44;5033310;28;20207;-80
2024/01/21 07:26:22;;;;;;;0.97;0.97;;;;;;;0.13;100.00;101931.13;5030498;28;20219;-75
2024/01/21 07:28:49;;;;;;;1.00;1.00;;;;;;;0.32;100.00;101929.41;4993178;28;20204;-75
2024/01/21 07:31:16;;;;;;;2.20;2.10;;;;;;;0.41;100.00;101925.94;5030796;28;20223;-74
2024/01/21 07:33:44;;;;;;;0.80;0.80;;;;;;;0.53;100.00;101930.31;5029480;28;20200;-74
2024/01/21 07:36:12;;;;;;;4.37;4.13;;;;;;;0.28;100.00;101902.72;5027411;28;20217;-73
2024/01/21 07:38:38;;;;;;;1.83;1.83;;;;;;;0.21;100.00;101909.72;5032533;28;20200;-73
2024/01/21 07:41:06;;;;;;;3.07;2.60;;;;;;;0.56;100.00;101931.47;4980867;28;20219;-75
2024/01/21 07:43:32;;;;;;;0.90;0.90;;;;;;;0.43;100.00;101937.16;5031271;28;20656;-76
2024/01/21 07:45:59;;;;;;;4.10;2.87;;;;;;;0.60;100.00;101912.19;5027152;28;20625;-77
2024/01/21 07:48:26;;;;;;;1.27;1.27;;;;;;;0.80;100.00;101912.19;5031358;28;20563;-77
2024/01/21 07:50:54;;;;;;;2.27;2.07;;;;;;;0.97;100.00;101928.13;5031651;28;20355;-78
2024/01/21 07:53:21;;;;;;;1.33;1.33;;;;;;;0.53;100.00;101904.78;5028091;28;20332;-80
2024/01/21 07:55:48;;;;;;;1.90;1.40;;;;;;;0.62;100.00;101947.28;5031171;28;20523;-76
2024/01/21 07:58:15;;;;;;;0.93;0.93;;;;;;;0.86;100.00;101948.41;4992465;28;20203;-79
2024/01/21 08:00:42;;;;;;;0.90;0.90;;;;;;;0.62;100.00;101952.38;4980702;28;20251;-76
2024/01/21 08:03:09;;;;;;;2.57;1.30;;;;;;;0.36;100.00;101937.41;5032077;28;20293;-80
2024/01/21 08:05:36;;;;;;;1.00;1.00;;;;;;;0.56;100.00;101956.09;5031362;28;20295;-81
2024/01/21 08:08:05;;;;;;;2.17;2.13;;;;;;;0.81;100.00;101959.94;5031244;28;20254;-76
2024/01/21 08:10:32;;;;;;;1.10;1.10;;;;;;;0.71;100.00;101942.06;5029118;28;20224;-76
2024/01/21 08:12:59;;;;;;;1.10;1.10;;;;;;;0.92;100.00;101960.06;5030598;28;20287;-76
2024/01/21 08:15:26;;;;;;;1.90;1.67;;;;;;;0.76;100.00;101961.19;5030988;28;20200;-78
2024/01/21 08:17:52;;;;;;;7.83;2.30;;;;;;;1.05;100.00;101966.16;5031126;28;20592;-81
2024/01/21 08:20:20;;;;;;;1.07;1.07;;;;;;;0.96;100.00;101966.31;5030598;28;20676;-78
2024/01/21 08:22:47;;;;;;;2.07;1.97;;;;;;;1.27;100.00;101969.72;5031037;28;20600;-83
2024/01/21 08:25:16;;;;;;;1.40;1.40;;;;;;;0.95;100.00;101882.81;5031353;28;20200;-76
2024/01/21 08:27:43;;;;;;;0.90;0.90;;;;;;;1.36;100.00;101921.91;5030849;28;20285;-78
2024/01/21 08:30:11;;;;;;;1.10;1.10;;;;;;;1.41;100.00;101970.09;5031085;28;20223;-79
2024/01/21 08:32:38;;;;;;;0.97;0.97;;;;;;;1.54;100.00;101966.84;5029841;28;20565;-80
2024/01/21 08:35:06;;;;;;;0.90;0.90;;;;;;;1.28;100.00;101951.97;5031011;28;20231;-80
2024/01/21 08:37:33;;;;;;;1.10;1.10;;;;;;;1.26;100.00;101968.84;5030804;28;21008;-80
2024/01/21 08:40:00;;;;;;;3.10;2.30;;;;;;;1.39;100.00;101975.84;5030877;28;20711;-82
2024/01/21 08:42:28;;;;;;;1.03;1.03;;;;;;;1.82;100.00;101978.53;5028657;28;20200;-77
2024/01/21 08:44:55;;;;;;;1.10;1.10;;;;;;;1.98;100.00;101984.09;5031403;28;20208;-77
2024/01/21 08:47:21;;;;;;;1.00;1.00;;;;;;;1.88;100.00;101988.38;5030711;28;20263;-78
2024/01/21 08:49:48;;;;;;;1.10;1.10;;;;;;;1.48;100.00;101986.81;5031192;28;20199;-77
2024/01/21 08:52:15;;;;;;;1.40;1.40;;;;;;;1.40;100.00;101988.75;5010946;28;20215;-79
2024/01/21 08:54:42;;;;;;;0.70;0.70;;;;;;;1.43;100.00;101988.09;5030445;28;20200;-79
2024/01/21 08:57:08;;;;;;;4.67;1.37;;;;;;;1.39;100.00;101956.28;5021194;28;20656;-80
2024/01/21 08:59:37;;;;;;;2.33;1.40;;;;;;;1.75;100.00;101988.16;5030883;28;20644;-76
2024/01/21 09:02:03;;;;;;;3.23;2.57;;;;;;;1.94;100.00;101991.41;5030043;28;20219;-78
2024/01/21 09:04:30;;;;;;;0.77;0.77;;;;;;;1.73;100.00;101967.56;4995628;28;20204;-79
2024/01/21 09:06:57;;;;;;;1.97;1.87;;;;;;;1.95;100.00;101977.84;5030672;28;20671;-78
2024/01/21 09:09:24;;;;;;;0.97;0.97;;;;;;;2.32;100.00;101972.28;5030312;28;20605;-80
2024/01/21 09:11:51;;;;;;;1.70;1.70;;;;;;;2.44;100.00;101973.25;5030080;28;20220;-77
2024/01/21 09:14:20;;;;;;;22.47;14.33;;;;;;;2.42;100.00;101958.53;4974177;28;20200;-78
2024/01/21 09:16:48;;;;;;;4.97;4.37;;;;;;;2.27;100.00;101976.16;5028850;28;20204;-78
2024/01/21 09:19:15;;;;;;;1.00;1.00;;;;;;;2.39;100.00;101969.41;5029538;28;20212;-75
2024/01/21 09:21:42;;;;;;;0.80;0.80;;;;;;;2.65;100.00;101973.09;5029198;28;20291;-77
2024/01/21 09:24:09;;;;;;;1.23;1.23;;;;;;;2.45;100.00;101975.03;5030216;28;20203;-78
2024/01/21 09:26:36;;;;;;;1.87;1.77;;;;;;;2.34;100.00;101954.50;5026236;28;20212;-79
2024/01/21 09:29:03;;;;;;;3.20;2.90;;;;;;;2.20;100.00;101975.56;5021409;28;20196;-77
2024/01/21 09:31:30;;;;;;;1.20;1.20;;;;;;;1.74;100.00;101937.78;5029574;28;20220;-81
2024/01/21 09:33:58;;;;;;;0.90;0.90;;;;;;;2.02;100.00;101954.53;5026930;28;20241;-76
2024/01/21 09:36:25;;;;;;;3.93;2.00;;;;;;;2.10;100.00;101971.41;4994990;28;20700;-75
2024/01/21 09:38:52;;;;;;;1.00;1.00;;;;;;;2.19;100.00;101973.75;5030564;28;20652;-79
2024/01/21 09:41:26;;;;;;;1.03;1.03;;;;;;;2.46;100.00;101971.69;4995415;28;20204;-78
2024/01/21 09:43:53;;;;;;;1.00;1.00;;;;;;;2.79;100.00;101952.00;5030148;28;20680;-76
2024/01/21 09:46:19;;;;;;;0.97;0.97;;;;;;;3.02;100.00;101966.53;5030259;28;20212;-74
2024/01/21 09:48:48;;;;;;;1.03;1.03;;;;;;;2.89;100.00;101955.34;5030074;28;20656;-79
2024/01/21 09:51:20;;;;;;;0.90;0.90;;;;;;;2.92;100.00;101975.22;5030005;28;20285;-75
2024/01/21 09:53:47;;;;;;;1.03;1.03;;;;;;;3.05;100.00;101975.34;5016575;28;20208;-74
2024/01/21 09:56:14;;;;;;;1.00;1.00;;;;;;;3.26;100.00;101974.38;5018668;28;20652;-75
2024/01/21 09:58:46;;;;;;;1.20;1.20;;;;;;;2.95;100.00;101971.22;5029020;28;20227;-75
2024/01/21 10:01:14;;;;;;;0.80;0.80;;;;;;;3.31;100.00;101972.19;5002947;28;20704;-73
2024/01/21 10:03:40;;;;;;;0.90;0.90;;;;;;;3.47;100.00;101947.75;5022653;28;20212;-77
2024/01/21 10:06:07;;;;;;;1.30;1.30;;;;;;;3.27;100.00;101888.13;5018336;28;20205;-75
2024/01/21 10:08:38;;;;;;;1.00;1.00;;;;;;;3.73;100.00;101974.41;5028203;28;20235;-76
2024/01/21 10:11:05;;;;;;;1.00;1.00;;;;;;;3.65;100.00;101965.25;5027863;28;20659;-75
2024/01/21 10:13:34;;;;;;;1.40;1.40;;;;;;;3.70;100.00;101971.63;5028486;28;20196;-79
2024/01/21 10:16:00;;;;;;;1.30;1.30;;;;;;;3.53;100.00;101966.94;5029694;28;20218;-76
2024/01/21 10:18:28;;;;;;;1.20;1.20;;;;;;;3.65;100.00;101961.03;5028671;28;20567;-77
2024/01/21 10:20:54;;;;;;;0.80;0.80;;;;;;;4.10;100.00;101972.81;5024970;28;20235;-79
2024/01/21 10:23:21;;;;;;;1.00;1.00;;;;;;;4.41;100.00;101969.94;5029077;28;20286;-78
2024/01/21 10:25:50;;;;;;;0.80;0.80;;;;;;;4.27;100.00;101978.34;5029516;28;20201;-78
2024/01/21 10:28:17;;;;;;;0.83;0.83;;;;;;;4.31;100.00;101970.09;5029173;28;20208;-78
2024/01/21 10:30:45;;;;;;;0.80;0.80;;;;;;;4.43;100.00;101981.19;4993246;28;20602;-76
2024/01/21 10:33:13;;;;;;;0.90;0.90;;;;;;;4.76;100.00;101974.03;5028717;28;20273;-76
2024/01/21 10:35:40;;;;;;;1.10;1.10;;;;;;;4.56;100.00;101948.66;5010557;28;20204;-77
2024/01/21 10:38:11;;;;;;;1.37;1.37;;;;;;;4.36;100.00;101976.41;4977284;28;20227;-75
2024/01/21 10:40:43;;;;;;;2.93;2.67;;;;;;;4.36;100.00;101976.41;5024417;28;20306;-74
2024/01/21 10:43:14;;;;;;;1.37;1.30;;;;;;;4.81;100.00;101962.41;5028144;28;20208;-74
2024/01/21 10:45:43;;;;;;;0.80;0.80;;;;;;;5.01;98.24;101964.63;5030484;28;20199;-74
2024/01/21 10:48:13;;;;;;;4.17;1.50;;;;;;;5.17;96.68;101954.59;5028549;28;20688;-73
2024/01/21 10:50:42;;;;;;;0.83;0.83;;;;;;;5.24;95.81;101918.22;5027986;28;20204;-70
2024/01/21 10:53:11;;;;;;;1.23;1.23;;;;;;;6.02;93.37;101965.31;5028774;28;20218;-72
2024/01/21 10:55:40;;;;;;;0.90;0.90;;;;;;;7.03;100.00;101944.91;5028105;28;20648;-74
2024/01/21 10:58:08;;;;;;;1.70;1.70;;;;;;;6.93;100.00;101947.75;4990549;28;20192;-75
2024/01/21 11:00:36;;;;;;;0.90;0.90;;;;;;;6.52;95.19;101972.72;5027495;28;20208;-76
2024/01/21 11:03:23;;;;;;;1.80;1.20;;;;;;;6.69;86.32;101965.22;5028568;28;20208;-73
2024/01/21 11:05:53;;;;;;;0.70;0.70;;;;;;;6.42;84.10;101956.69;5028900;28;20204;-75
2024/01/21 11:08:23;;;;;;;0.90;0.90;;;;;;;5.59;87.54;101968.47;5031418;28;20235;-75
2024/01/21 11:10:52;;;;;;;0.90;0.90;;;;;;;6.81;100.00;101927.28;5022864;28;20213;-72
2024/01/21 11:13:41;;;;;;;0.57;0.57;;;;;;;6.52;100.00;101950.44;5032561;28;20672;-74
2024/01/21 11:16:11;;;;;;;1.00;1.00;;;;;;;5.56;88.18;101876.56;4991372;28;20265;-75
2024/01/21 11:18:37;;;;;;;1.97;1.87;;;;;;;5.65;88.66;101938.88;5026321;28;20215;-77
2024/01/21 11:21:05;;;;;;;1.07;1.07;;;;;;;5.74;89.88;101933.44;5031498;28;20699;-76
2024/01/21 11:23:33;;;;;;;1.00;1.00;;;;;;;5.71;89.89;101939.25;5031269;28;20200;-77
2024/01/21 11:26:00;;;;;;;0.83;0.83;;;;;;;4.92;89.08;101835.53;5029417;28;20212;-74